METAR LOCAUX

2020/02/25 20:30 LFST 252030Z AUTO 22011KT 9999 FEW044 SCT120 06/03 Q1001 TEMPO 28020G33KT 3500 SHRAGS SCT020CB BKN030
2020/02/25 20:50 EDSB 252050Z 20013KT 9999 OVC042 07/03 Q1001
2020/02/25 20:30 LFGA 252030Z AUTO 19009KT 140V240 9999 BKN049 BKN060 09/01 Q1002
www.noaa.gov

Ne pas utiliser pour préparer ou effectuer un vol: Utilisez la documentation officielle disponible sur aviation.meteo.fr (Aéroweb)


"Le soleil du matin ne dure pas forcément toute la journée."

Animation satellite IR

Meteociel.fr

"Derrière chaque nuage se cache le ciel bleu."

Radar pluie

Infoclimat.fr

"Si tu veux l’arc-en-ciel, tu dois supporter la pluie."
Dolly Parton

Nébulosité (octas)

Meteociel.fr

"Le soleil est souvent obscurci par les nuages et la raison par les passions."
Démophile

Impacts de foudre

www.meteo60.fr

"Celui que frappe la foudre n'entend pas le tonnerre."

Vigilance météo

vigilance-meteo.fr

"Tout nuage n'enfante pas une tempête."
William Shakespeare

TAF locaux

2020/02/25 18:47 TAF LFST 251700Z 2518/2618 24012KT 9999 BKN040 TEMPO 2518/2618 27015G30KT 2000 SHRA BKN020CB
2020/02/25 18:28 TAF EDSB 251700Z 2518/2618 22012KT 9999 SCT025 TEMPO 2518/2603 24015G30KT 4000 SHRA BKN014CB PROB30 TEMPO 2520/2603 TSRAGS BKN014CB PROB30 TEMPO 2603/2618 24015G30KT 3000 SHSNRA BKN010CB
www.noaa.gov

Ne pas utiliser pour préparer ou effectuer un vol: Utilisez la documentation officielle disponible sur aviation.meteo.fr (Aéroweb)


"Les jours où le ciel est gris, le soleil n'a pas disparu à tout jamais."
Arnaud Desjardins

Prévisions 7 jours


Meteoblue.com

"Quand les crapauds chantent, le beau temps s'avance !"